sensor_id;sensor_type;location;lat;lon;timestamp;P1;durP1;ratioP1;P2;durP2;ratioP2
6878;SDS011;3478;51.462;7.338;2022-11-20T00:04:28;25.47;;;18.50;;
6878;SDS011;3478;51.462;7.338;2022-11-20T00:09:31;27.93;;;17.90;;
6878;SDS011;3478;51.462;7.338;2022-11-20T00:14:32;27.77;;;18.20;;
6878;SDS011;3478;51.462;7.338;2022-11-20T00:19:34;24.13;;;17.70;;
6878;SDS011;3478;51.462;7.338;2022-11-20T00:24:37;24.10;;;18.77;;
6878;SDS011;3478;51.462;7.338;2022-11-20T00:29:39;26.17;;;18.00;;
6878;SDS011;3478;51.462;7.338;2022-11-20T00:34:41;31.07;;;19.20;;
6878;SDS011;3478;51.462;7.338;2022-11-20T00:39:44;27.73;;;18.00;;
6878;SDS011;3478;51.462;7.338;2022-11-20T00:44:46;30.00;;;19.13;;
6878;SDS011;3478;51.462;7.338;2022-11-20T00:49:48;27.20;;;17.87;;
6878;SDS011;3478;51.462;7.338;2022-11-20T00:54:51;36.67;;;22.33;;
6878;SDS011;3478;51.462;7.338;2022-11-20T00:59:53;27.40;;;18.10;;
6878;SDS011;3478;51.462;7.338;2022-11-20T01:04:54;30.83;;;18.97;;
6878;SDS011;3478;51.462;7.338;2022-11-20T01:09:58;20.47;;;15.83;;
6878;SDS011;3478;51.462;7.338;2022-11-20T01:14:59;27.13;;;16.47;;
6878;SDS011;3478;51.462;7.338;2022-11-20T01:20:01;24.50;;;16.33;;
6878;SDS011;3478;51.462;7.338;2022-11-20T01:25:05;24.17;;;16.73;;
6878;SDS011;3478;51.462;7.338;2022-11-20T01:30:07;22.80;;;16.63;;
6878;SDS011;3478;51.462;7.338;2022-11-20T01:35:10;22.80;;;16.63;;
6878;SDS011;3478;51.462;7.338;2022-11-20T01:40:13;24.77;;;15.93;;
6878;SDS011;3478;51.462;7.338;2022-11-20T01:50:50;25.30;;;16.80;;
6878;SDS011;3478;51.462;7.338;2022-11-20T01:55:55;28.03;;;17.20;;
6878;SDS011;3478;51.462;7.338;2022-11-20T02:01:00;33.23;;;19.50;;
6878;SDS011;3478;51.462;7.338;2022-11-20T02:06:04;22.53;;;15.20;;
6878;SDS011;3478;51.462;7.338;2022-11-20T02:11:12;23.23;;;14.40;;
6878;SDS011;3478;51.462;7.338;2022-11-20T02:16:19;23.37;;;14.97;;
6878;SDS011;3478;51.462;7.338;2022-11-20T02:21:28;17.80;;;13.77;;
6878;SDS011;3478;51.462;7.338;2022-11-20T02:26:40;20.60;;;14.57;;
6878;SDS011;3478;51.462;7.338;2022-11-20T02:31:45;24.63;;;15.17;;
6878;SDS011;3478;51.462;7.338;2022-11-20T02:36:47;20.27;;;14.17;;
6878;SDS011;3478;51.462;7.338;2022-11-20T02:41:52;19.30;;;14.30;;
6878;SDS011;3478;51.462;7.338;2022-11-20T02:46:56;20.13;;;14.13;;
6878;SDS011;3478;51.462;7.338;2022-11-20T02:51:58;24.27;;;14.77;;
6878;SDS011;3478;51.462;7.338;2022-11-20T02:57:02;22.30;;;14.30;;
6878;SDS011;3478;51.462;7.338;2022-11-20T03:02:04;21.73;;;15.17;;
6878;SDS011;3478;51.462;7.338;2022-11-20T03:07:07;25.67;;;14.50;;
6878;SDS011;3478;51.462;7.338;2022-11-20T03:12:11;21.77;;;13.20;;
6878;SDS011;3478;51.462;7.338;2022-11-20T03:17:12;19.50;;;13.80;;
6878;SDS011;3478;51.462;7.338;2022-11-20T03:22:14;19.00;;;12.97;;
6878;SDS011;3478;51.462;7.338;2022-11-20T03:27:17;22.47;;;14.93;;
6878;SDS011;3478;51.462;7.338;2022-11-20T03:32:19;22.40;;;13.33;;
6878;SDS011;3478;51.462;7.338;2022-11-20T03:37:22;19.83;;;12.80;;
6878;SDS011;3478;51.462;7.338;2022-11-20T03:42:25;18.00;;;12.67;;
6878;SDS011;3478;51.462;7.338;2022-11-20T03:47:44;18.10;;;13.60;;
6878;SDS011;3478;51.462;7.338;2022-11-20T03:52:47;15.43;;;12.10;;
6878;SDS011;3478;51.462;7.338;2022-11-20T03:57:50;23.57;;;15.10;;
6878;SDS011;3478;51.462;7.338;2022-11-20T04:02:52;22.60;;;14.47;;
6878;SDS011;3478;51.462;7.338;2022-11-20T04:07:54;17.07;;;12.63;;
6878;SDS011;3478;51.462;7.338;2022-11-20T04:12:57;16.53;;;13.20;;
6878;SDS011;3478;51.462;7.338;2022-11-20T04:17:59;22.30;;;13.60;;
6878;SDS011;3478;51.462;7.338;2022-11-20T04:23:01;20.30;;;13.30;;
6878;SDS011;3478;51.462;7.338;2022-11-20T04:28:04;19.70;;;13.10;;
6878;SDS011;3478;51.462;7.338;2022-11-20T04:33:06;17.90;;;12.20;;
6878;SDS011;3478;51.462;7.338;2022-11-20T04:38:08;18.73;;;13.83;;
6878;SDS011;3478;51.462;7.338;2022-11-20T04:43:11;22.77;;;13.87;;
6878;SDS011;3478;51.462;7.338;2022-11-20T04:48:13;19.90;;;14.10;;
6878;SDS011;3478;51.462;7.338;2022-11-20T04:53:15;20.77;;;14.77;;
6878;SDS011;3478;51.462;7.338;2022-11-20T04:58:18;25.97;;;15.93;;
6878;SDS011;3478;51.462;7.338;2022-11-20T05:03:20;25.53;;;14.10;;
6878;SDS011;3478;51.462;7.338;2022-11-20T05:08:22;22.40;;;15.87;;
6878;SDS011;3478;51.462;7.338;2022-11-20T05:13:25;24.53;;;14.23;;
6878;SDS011;3478;51.462;7.338;2022-11-20T05:18:28;24.07;;;14.23;;
6878;SDS011;3478;51.462;7.338;2022-11-20T05:23:30;24.40;;;15.40;;
6878;SDS011;3478;51.462;7.338;2022-11-20T05:28:34;19.37;;;13.70;;
6878;SDS011;3478;51.462;7.338;2022-11-20T05:33:36;22.03;;;13.50;;
6878;SDS011;3478;51.462;7.338;2022-11-20T05:38:40;24.67;;;14.53;;
6878;SDS011;3478;51.462;7.338;2022-11-20T05:43:44;23.73;;;14.23;;
6878;SDS011;3478;51.462;7.338;2022-11-20T05:48:47;22.50;;;12.37;;
6878;SDS011;3478;51.462;7.338;2022-11-20T05:53:49;25.17;;;15.10;;
6878;SDS011;3478;51.462;7.338;2022-11-20T05:58:52;17.20;;;13.57;;
6878;SDS011;3478;51.462;7.338;2022-11-20T06:03:54;20.27;;;12.50;;
6878;SDS011;3478;51.462;7.338;2022-11-20T06:08:56;19.27;;;14.87;;
6878;SDS011;3478;51.462;7.338;2022-11-20T06:14:00;24.73;;;15.33;;
6878;SDS011;3478;51.462;7.338;2022-11-20T06:19:02;20.63;;;14.50;;
6878;SDS011;3478;51.462;7.338;2022-11-20T06:24:05;22.30;;;15.27;;
6878;SDS011;3478;51.462;7.338;2022-11-20T06:29:08;23.90;;;15.30;;
6878;SDS011;3478;51.462;7.338;2022-11-20T06:34:10;21.47;;;14.23;;
6878;SDS011;3478;51.462;7.338;2022-11-20T06:39:12;19.90;;;14.93;;
6878;SDS011;3478;51.462;7.338;2022-11-20T06:44:15;15.17;;;11.53;;
6878;SDS011;3478;51.462;7.338;2022-11-20T06:49:17;17.53;;;12.83;;
6878;SDS011;3478;51.462;7.338;2022-11-20T06:54:19;24.43;;;15.43;;
6878;SDS011;3478;51.462;7.338;2022-11-20T06:59:22;17.03;;;13.87;;
6878;SDS011;3478;51.462;7.338;2022-11-20T07:04:24;36.70;;;14.23;;
6878;SDS011;3478;51.462;7.338;2022-11-20T07:09:26;23.20;;;14.97;;
6878;SDS011;3478;51.462;7.338;2022-11-20T07:14:29;21.80;;;14.50;;
6878;SDS011;3478;51.462;7.338;2022-11-20T07:19:31;21.67;;;15.50;;
6878;SDS011;3478;51.462;7.338;2022-11-20T07:24:32;28.33;;;15.83;;
6878;SDS011;3478;51.462;7.338;2022-11-20T07:29:36;15.90;;;12.10;;
6878;SDS011;3478;51.462;7.338;2022-11-20T07:34:38;17.10;;;11.37;;
6878;SDS011;3478;51.462;7.338;2022-11-20T07:39:40;16.43;;;11.73;;
6878;SDS011;3478;51.462;7.338;2022-11-20T07:44:43;11.03;;;7.90;;
6878;SDS011;3478;51.462;7.338;2022-11-20T07:49:45;15.23;;;10.33;;
6878;SDS011;3478;51.462;7.338;2022-11-20T07:54:46;15.17;;;10.80;;
6878;SDS011;3478;51.462;7.338;2022-11-20T07:59:50;10.33;;;8.60;;
6878;SDS011;3478;51.462;7.338;2022-11-20T08:04:51;18.33;;;12.17;;
6878;SDS011;3478;51.462;7.338;2022-11-20T08:09:53;19.40;;;12.73;;
6878;SDS011;3478;51.462;7.338;2022-11-20T08:14:56;20.10;;;13.43;;
6878;SDS011;3478;51.462;7.338;2022-11-20T08:19:58;17.20;;;13.40;;
6878;SDS011;3478;51.462;7.338;2022-11-20T08:25:00;22.07;;;14.60;;
6878;SDS011;3478;51.462;7.338;2022-11-20T08:30:04;31.90;;;18.20;;
6878;SDS011;3478;51.462;7.338;2022-11-20T08:35:07;26.03;;;16.97;;
6878;SDS011;3478;51.462;7.338;2022-11-20T08:40:10;26.60;;;16.10;;
6878;SDS011;3478;51.462;7.338;2022-11-20T08:45:14;26.07;;;18.90;;
6878;SDS011;3478;51.462;7.338;2022-11-20T08:50:16;26.40;;;17.10;;
6878;SDS011;3478;51.462;7.338;2022-11-20T08:55:18;18.40;;;15.50;;
6878;SDS011;3478;51.462;7.338;2022-11-20T09:00:22;18.30;;;14.50;;
6878;SDS011;3478;51.462;7.338;2022-11-20T09:05:24;19.00;;;15.60;;
6878;SDS011;3478;51.462;7.338;2022-11-20T09:10:26;18.93;;;14.97;;
6878;SDS011;3478;51.462;7.338;2022-11-20T09:15:29;23.90;;;15.00;;
6878;SDS011;3478;51.462;7.338;2022-11-20T09:20:31;15.30;;;13.23;;
6878;SDS011;3478;51.462;7.338;2022-11-20T09:25:33;21.23;;;13.23;;
6878;SDS011;3478;51.462;7.338;2022-11-20T09:30:36;17.97;;;13.93;;
6878;SDS011;3478;51.462;7.338;2022-11-20T09:35:38;28.83;;;19.77;;
6878;SDS011;3478;51.462;7.338;2022-11-20T09:40:43;61.20;;;31.40;;
6878;SDS011;3478;51.462;7.338;2022-11-20T09:45:53;25.90;;;16.43;;
6878;SDS011;3478;51.462;7.338;2022-11-20T09:51:02;22.67;;;15.20;;
6878;SDS011;3478;51.462;7.338;2022-11-20T09:56:10;20.20;;;13.80;;
6878;SDS011;3478;51.462;7.338;2022-11-20T10:01:15;20.63;;;14.00;;
6878;SDS011;3478;51.462;7.338;2022-11-20T10:06:20;17.07;;;13.03;;
6878;SDS011;3478;51.462;7.338;2022-11-20T10:11:27;19.17;;;12.27;;
6878;SDS011;3478;51.462;7.338;2022-11-20T10:16:36;13.47;;;11.27;;
6878;SDS011;3478;51.462;7.338;2022-11-20T10:21:52;12.87;;;10.00;;
6878;SDS011;3478;51.462;7.338;2022-11-20T10:27:06;20.30;;;13.90;;
6878;SDS011;3478;51.462;7.338;2022-11-20T10:32:27;14.47;;;11.37;;
6878;SDS011;3478;51.462;7.338;2022-11-20T10:37:35;16.80;;;9.90;;
6878;SDS011;3478;51.462;7.338;2022-11-20T10:42:42;12.03;;;9.20;;
6878;SDS011;3478;51.462;7.338;2022-11-20T10:47:47;11.90;;;8.73;;
6878;SDS011;3478;51.462;7.338;2022-11-20T10:52:52;10.77;;;9.03;;
6878;SDS011;3478;51.462;7.338;2022-11-20T10:58:07;10.03;;;8.70;;
6878;SDS011;3478;51.462;7.338;2022-11-20T11:03:20;11.67;;;9.00;;
6878;SDS011;3478;51.462;7.338;2022-11-20T11:08:24;13.20;;;10.40;;
6878;SDS011;3478;51.462;7.338;2022-11-20T11:13:30;18.03;;;10.93;;
6878;SDS011;3478;51.462;7.338;2022-11-20T11:18:37;21.27;;;11.83;;
6878;SDS011;3478;51.462;7.338;2022-11-20T11:23:41;14.27;;;11.10;;
6878;SDS011;3478;51.462;7.338;2022-11-20T11:28:52;13.23;;;10.70;;
6878;SDS011;3478;51.462;7.338;2022-11-20T11:34:04;15.30;;;10.57;;
6878;SDS011;3478;51.462;7.338;2022-11-20T11:39:15;13.50;;;9.70;;
6878;SDS011;3478;51.462;7.338;2022-11-20T11:44:20;12.30;;;9.20;;
6878;SDS011;3478;51.462;7.338;2022-11-20T11:49:44;12.40;;;9.53;;
6878;SDS011;3478;51.462;7.338;2022-11-20T11:54:47;14.60;;;9.63;;
6878;SDS011;3478;51.462;7.338;2022-11-20T11:59:57;14.80;;;10.87;;
6878;SDS011;3478;51.462;7.338;2022-11-20T12:05:05;12.83;;;9.63;;
6878;SDS011;3478;51.462;7.338;2022-11-20T12:10:20;14.40;;;9.43;;
6878;SDS011;3478;51.462;7.338;2022-11-20T12:15:26;13.47;;;9.43;;
6878;SDS011;3478;51.462;7.338;2022-11-20T12:20:33;11.50;;;8.03;;
6878;SDS011;3478;51.462;7.338;2022-11-20T12:25:43;8.97;;;6.20;;
6878;SDS011;3478;51.462;7.338;2022-11-20T12:30:50;9.70;;;7.93;;
6878;SDS011;3478;51.462;7.338;2022-11-20T12:36:11;9.90;;;7.80;;
6878;SDS011;3478;51.462;7.338;2022-11-20T12:41:22;9.73;;;7.10;;
6878;SDS011;3478;51.462;7.338;2022-11-20T12:46:57;8.30;;;6.93;;
6878;SDS011;3478;51.462;7.338;2022-11-20T12:52:19;10.43;;;7.63;;
6878;SDS011;3478;51.462;7.338;2022-11-20T12:57:34;9.73;;;7.07;;
6878;SDS011;3478;51.462;7.338;2022-11-20T13:02:53;12.47;;;8.77;;
6878;SDS011;3478;51.462;7.338;2022-11-20T13:08:11;12.37;;;8.17;;
6878;SDS011;3478;51.462;7.338;2022-11-20T13:13:21;13.17;;;9.43;;
6878;SDS011;3478;51.462;7.338;2022-11-20T13:18:28;11.87;;;8.10;;
6878;SDS011;3478;51.462;7.338;2022-11-20T13:23:40;12.70;;;9.57;;
6878;SDS011;3478;51.462;7.338;2022-11-20T13:28:42;18.73;;;11.27;;
6878;SDS011;3478;51.462;7.338;2022-11-20T13:33:44;13.07;;;9.13;;
6878;SDS011;3478;51.462;7.338;2022-11-20T13:38:52;15.53;;;9.97;;
6878;SDS011;3478;51.462;7.338;2022-11-20T13:43:57;10.57;;;9.10;;
6878;SDS011;3478;51.462;7.338;2022-11-20T13:49:05;16.07;;;9.97;;
6878;SDS011;3478;51.462;7.338;2022-11-20T13:54:17;19.20;;;10.47;;
6878;SDS011;3478;51.462;7.338;2022-11-20T13:59:43;14.53;;;10.90;;
6878;SDS011;3478;51.462;7.338;2022-11-20T14:04:55;18.50;;;10.70;;
6878;SDS011;3478;51.462;7.338;2022-11-20T14:10:00;13.50;;;9.23;;
6878;SDS011;3478;51.462;7.338;2022-11-20T14:15:03;16.73;;;10.60;;
6878;SDS011;3478;51.462;7.338;2022-11-20T14:20:05;16.53;;;10.97;;
6878;SDS011;3478;51.462;7.338;2022-11-20T14:25:20;16.37;;;10.57;;
6878;SDS011;3478;51.462;7.338;2022-11-20T14:30:27;14.27;;;10.87;;
6878;SDS011;3478;51.462;7.338;2022-11-20T14:35:31;16.97;;;10.83;;
6878;SDS011;3478;51.462;7.338;2022-11-20T14:40:40;13.20;;;9.73;;
6878;SDS011;3478;51.462;7.338;2022-11-20T14:45:42;16.13;;;10.47;;
6878;SDS011;3478;51.462;7.338;2022-11-20T14:50:44;12.47;;;9.63;;
6878;SDS011;3478;51.462;7.338;2022-11-20T14:55:53;16.70;;;11.03;;
6878;SDS011;3478;51.462;7.338;2022-11-20T15:00:57;17.33;;;10.90;;
6878;SDS011;3478;51.462;7.338;2022-11-20T15:06:00;18.00;;;11.77;;
6878;SDS011;3478;51.462;7.338;2022-11-20T15:11:14;18.77;;;11.00;;
6878;SDS011;3478;51.462;7.338;2022-11-20T15:16:19;21.10;;;11.97;;
6878;SDS011;3478;51.462;7.338;2022-11-20T15:21:24;20.83;;;12.00;;
6878;SDS011;3478;51.462;7.338;2022-11-20T15:26:27;17.83;;;13.23;;
6878;SDS011;3478;51.462;7.338;2022-11-20T15:31:29;18.03;;;12.00;;
6878;SDS011;3478;51.462;7.338;2022-11-20T15:36:31;18.17;;;11.77;;
6878;SDS011;3478;51.462;7.338;2022-11-20T15:41:34;18.87;;;11.50;;
6878;SDS011;3478;51.462;7.338;2022-11-20T15:46:37;20.90;;;13.70;;
6878;SDS011;3478;51.462;7.338;2022-11-20T15:51:43;20.77;;;12.00;;
6878;SDS011;3478;51.462;7.338;2022-11-20T15:56:48;20.20;;;13.27;;
6878;SDS011;3478;51.462;7.338;2022-11-20T16:01:52;25.67;;;13.77;;
6878;SDS011;3478;51.462;7.338;2022-11-20T16:06:54;23.67;;;14.10;;
6878;SDS011;3478;51.462;7.338;2022-11-20T16:11:57;22.00;;;12.30;;
6878;SDS011;3478;51.462;7.338;2022-11-20T16:17:00;20.83;;;13.60;;
6878;SDS011;3478;51.462;7.338;2022-11-20T16:22:01;21.90;;;14.97;;
6878;SDS011;3478;51.462;7.338;2022-11-20T16:27:05;23.13;;;15.70;;
6878;SDS011;3478;51.462;7.338;2022-11-20T16:32:06;24.57;;;15.10;;
6878;SDS011;3478;51.462;7.338;2022-11-20T16:37:10;26.63;;;15.47;;
6878;SDS011;3478;51.462;7.338;2022-11-20T16:42:13;26.20;;;15.10;;
6878;SDS011;3478;51.462;7.338;2022-11-20T16:47:15;28.70;;;16.77;;
6878;SDS011;3478;51.462;7.338;2022-11-20T16:52:16;30.80;;;17.10;;
6878;SDS011;3478;51.462;7.338;2022-11-20T16:57:20;26.27;;;16.20;;
6878;SDS011;3478;51.462;7.338;2022-11-20T17:02:22;27.03;;;17.80;;
6878;SDS011;3478;51.462;7.338;2022-11-20T17:07:25;34.43;;;18.23;;
6878;SDS011;3478;51.462;7.338;2022-11-20T17:12:29;32.63;;;17.20;;
6878;SDS011;3478;51.462;7.338;2022-11-20T17:17:31;29.73;;;18.23;;
6878;SDS011;3478;51.462;7.338;2022-11-20T17:22:33;34.03;;;16.90;;
6878;SDS011;3478;51.462;7.338;2022-11-20T17:27:36;34.80;;;18.80;;
6878;SDS011;3478;51.462;7.338;2022-11-20T17:32:38;28.80;;;17.00;;
6878;SDS011;3478;51.462;7.338;2022-11-20T17:37:44;25.63;;;14.90;;
6878;SDS011;3478;51.462;7.338;2022-11-20T17:42:47;25.30;;;15.50;;
6878;SDS011;3478;51.462;7.338;2022-11-20T17:47:49;23.63;;;14.30;;
6878;SDS011;3478;51.462;7.338;2022-11-20T17:52:51;22.97;;;13.90;;
6878;SDS011;3478;51.462;7.338;2022-11-20T17:57:54;23.53;;;14.80;;
6878;SDS011;3478;51.462;7.338;2022-11-20T18:03:01;21.17;;;12.53;;
6878;SDS011;3478;51.462;7.338;2022-11-20T18:08:03;18.33;;;11.97;;
6878;SDS011;3478;51.462;7.338;2022-11-20T18:13:08;17.60;;;10.10;;
6878;SDS011;3478;51.462;7.338;2022-11-20T18:18:10;12.43;;;9.43;;
6878;SDS011;3478;51.462;7.338;2022-11-20T18:23:12;14.30;;;8.60;;
6878;SDS011;3478;51.462;7.338;2022-11-20T18:28:15;10.93;;;6.40;;
6878;SDS011;3478;51.462;7.338;2022-11-20T18:33:18;9.30;;;4.37;;
6878;SDS011;3478;51.462;7.338;2022-11-20T18:38:20;7.97;;;5.93;;
6878;SDS011;3478;51.462;7.338;2022-11-20T18:43:23;8.43;;;5.87;;
6878;SDS011;3478;51.462;7.338;2022-11-20T18:48:43;5.97;;;5.07;;
6878;SDS011;3478;51.462;7.338;2022-11-20T18:53:44;3.60;;;3.30;;
6878;SDS011;3478;51.462;7.338;2022-11-20T18:58:48;5.50;;;5.00;;
6878;SDS011;3478;51.462;7.338;2022-11-20T19:03:49;2.57;;;2.13;;
6878;SDS011;3478;51.462;7.338;2022-11-20T19:08:52;3.50;;;2.53;;
6878;SDS011;3478;51.462;7.338;2022-11-20T19:13:55;6.00;;;4.30;;
6878;SDS011;3478;51.462;7.338;2022-11-20T19:18:58;6.10;;;4.53;;
6878;SDS011;3478;51.462;7.338;2022-11-20T19:24:00;2.60;;;2.30;;
6878;SDS011;3478;51.462;7.338;2022-11-20T19:29:05;4.60;;;4.30;;
6878;SDS011;3478;51.462;7.338;2022-11-20T19:34:07;4.33;;;3.00;;
6878;SDS011;3478;51.462;7.338;2022-11-20T19:39:11;3.50;;;2.77;;
6878;SDS011;3478;51.462;7.338;2022-11-20T19:44:14;2.10;;;1.90;;
6878;SDS011;3478;51.462;7.338;2022-11-20T19:49:17;5.20;;;4.77;;
6878;SDS011;3478;51.462;7.338;2022-11-20T19:54:19;4.57;;;4.03;;
6878;SDS011;3478;51.462;7.338;2022-11-20T19:59:22;2.33;;;2.00;;
6878;SDS011;3478;51.462;7.338;2022-11-20T20:04:24;4.00;;;3.70;;
6878;SDS011;3478;51.462;7.338;2022-11-20T20:09:26;3.47;;;3.13;;
6878;SDS011;3478;51.462;7.338;2022-11-20T20:14:30;6.57;;;5.97;;
6878;SDS011;3478;51.462;7.338;2022-11-20T20:19:33;6.80;;;6.20;;
6878;SDS011;3478;51.462;7.338;2022-11-20T20:24:35;5.87;;;5.37;;
6878;SDS011;3478;51.462;7.338;2022-11-20T20:29:38;7.73;;;6.93;;
6878;SDS011;3478;51.462;7.338;2022-11-20T20:34:40;9.97;;;8.80;;
6878;SDS011;3478;51.462;7.338;2022-11-20T20:39:42;10.50;;;7.97;;
6878;SDS011;3478;51.462;7.338;2022-11-20T20:44:45;14.97;;;10.30;;
6878;SDS011;3478;51.462;7.338;2022-11-20T20:50:05;21.53;;;15.60;;
6878;SDS011;3478;51.462;7.338;2022-11-20T20:55:09;29.70;;;21.00;;
6878;SDS011;3478;51.462;7.338;2022-11-20T21:00:13;30.50;;;21.50;;
6878;SDS011;3478;51.462;7.338;2022-11-20T21:05:15;31.23;;;21.20;;
6878;SDS011;3478;51.462;7.338;2022-11-20T21:10:17;29.90;;;20.83;;
6878;SDS011;3478;51.462;7.338;2022-11-20T21:15:21;30.60;;;21.60;;
6878;SDS011;3478;51.462;7.338;2022-11-20T21:20:22;33.30;;;22.17;;
6878;SDS011;3478;51.462;7.338;2022-11-20T21:25:42;32.60;;;19.97;;
6878;SDS011;3478;51.462;7.338;2022-11-20T21:30:45;35.67;;;24.40;;
6878;SDS011;3478;51.462;7.338;2022-11-20T21:35:47;26.90;;;19.20;;
6878;SDS011;3478;51.462;7.338;2022-11-20T21:40:49;26.60;;;18.07;;
6878;SDS011;3478;51.462;7.338;2022-11-20T21:45:52;22.30;;;15.33;;
6878;SDS011;3478;51.462;7.338;2022-11-20T21:50:55;22.10;;;15.20;;
6878;SDS011;3478;51.462;7.338;2022-11-20T21:56:02;25.67;;;17.00;;
6878;SDS011;3478;51.462;7.338;2022-11-20T22:01:10;26.50;;;18.97;;
6878;SDS011;3478;51.462;7.338;2022-11-20T22:06:12;33.93;;;20.00;;
6878;SDS011;3478;51.462;7.338;2022-11-20T22:11:15;35.60;;;22.10;;
6878;SDS011;3478;51.462;7.338;2022-11-20T22:16:19;35.87;;;22.27;;
6878;SDS011;3478;51.462;7.338;2022-11-20T22:21:22;39.93;;;21.63;;
6878;SDS011;3478;51.462;7.338;2022-11-20T22:26:26;48.93;;;24.23;;
6878;SDS011;3478;51.462;7.338;2022-11-20T22:31:30;41.37;;;25.90;;
6878;SDS011;3478;51.462;7.338;2022-11-20T22:36:32;42.00;;;24.10;;
6878;SDS011;3478;51.462;7.338;2022-11-20T22:41:37;40.30;;;24.50;;
6878;SDS011;3478;51.462;7.338;2022-11-20T22:46:40;52.33;;;24.60;;
6878;SDS011;3478;51.462;7.338;2022-11-20T22:51:42;38.27;;;23.47;;
6878;SDS011;3478;51.462;7.338;2022-11-20T22:56:44;35.03;;;21.83;;
6878;SDS011;3478;51.462;7.338;2022-11-20T23:01:47;30.73;;;18.50;;
6878;SDS011;3478;51.462;7.338;2022-11-20T23:06:49;29.77;;;17.53;;
6878;SDS011;3478;51.462;7.338;2022-11-20T23:11:51;27.20;;;15.60;;
6878;SDS011;3478;51.462;7.338;2022-11-20T23:16:54;23.83;;;15.80;;
6878;SDS011;3478;51.462;7.338;2022-11-20T23:21:56;27.27;;;16.17;;
6878;SDS011;3478;51.462;7.338;2022-11-20T23:26:58;24.23;;;14.43;;
6878;SDS011;3478;51.462;7.338;2022-11-20T23:32:01;29.23;;;15.30;;
6878;SDS011;3478;51.462;7.338;2022-11-20T23:37:03;23.40;;;15.47;;
6878;SDS011;3478;51.462;7.338;2022-11-20T23:42:07;26.00;;;14.60;;
6878;SDS011;3478;51.462;7.338;2022-11-20T23:47:10;19.70;;;14.20;;
6878;SDS011;3478;51.462;7.338;2022-11-20T23:52:12;26.10;;;15.43;;
6878;SDS011;3478;51.462;7.338;2022-11-20T23:57:14;20.50;;;14.10;;
